sensor_id;sensor_type;location;lat;lon;timestamp;P1;durP1;ratioP1;P2;durP2;ratioP2
23418;SDS011;11882;42.522;27.458;2022-12-18T00:02:07;6.30;;;3.17;;
23418;SDS011;11882;42.522;27.458;2022-12-18T00:04:34;4.93;;;3.03;;
23418;SDS011;11882;42.522;27.458;2022-12-18T00:07:01;5.20;;;3.30;;
23418;SDS011;11882;42.522;27.458;2022-12-18T00:09:28;6.27;;;3.40;;
23418;SDS011;11882;42.522;27.458;2022-12-18T00:11:55;4.90;;;3.87;;
23418;SDS011;11882;42.522;27.458;2022-12-18T00:14:24;7.53;;;4.97;;
23418;SDS011;11882;42.522;27.458;2022-12-18T00:16:51;8.83;;;4.70;;
23418;SDS011;11882;42.522;27.458;2022-12-18T00:19:18;5.67;;;4.10;;
23418;SDS011;11882;42.522;27.458;2022-12-18T00:21:45;5.63;;;4.23;;
23418;SDS011;11882;42.522;27.458;2022-12-18T00:24:12;7.97;;;4.60;;
23418;SDS011;11882;42.522;27.458;2022-12-18T00:26:39;7.90;;;5.10;;
23418;SDS011;11882;42.522;27.458;2022-12-18T00:29:07;6.43;;;4.60;;
23418;SDS011;11882;42.522;27.458;2022-12-18T00:31:38;6.67;;;4.50;;
23418;SDS011;11882;42.522;27.458;2022-12-18T00:34:05;8.37;;;4.73;;
23418;SDS011;11882;42.522;27.458;2022-12-18T00:36:33;6.37;;;4.67;;
23418;SDS011;11882;42.522;27.458;2022-12-18T00:39:02;8.00;;;4.83;;
23418;SDS011;11882;42.522;27.458;2022-12-18T00:41:31;8.27;;;5.00;;
23418;SDS011;11882;42.522;27.458;2022-12-18T00:44:20;7.13;;;5.07;;
23418;SDS011;11882;42.522;27.458;2022-12-18T00:46:49;7.93;;;4.83;;
23418;SDS011;11882;42.522;27.458;2022-12-18T00:49:16;9.33;;;6.30;;
23418;SDS011;11882;42.522;27.458;2022-12-18T00:51:44;13.57;;;8.83;;
23418;SDS011;11882;42.522;27.458;2022-12-18T00:54:12;13.27;;;9.53;;
23418;SDS011;11882;42.522;27.458;2022-12-18T00:56:39;13.37;;;8.90;;
23418;SDS011;11882;42.522;27.458;2022-12-18T00:59:06;12.90;;;9.10;;
23418;SDS011;11882;42.522;27.458;2022-12-18T01:01:33;13.10;;;9.17;;
23418;SDS011;11882;42.522;27.458;2022-12-18T01:04:02;15.47;;;9.13;;
23418;SDS011;11882;42.522;27.458;2022-12-18T01:06:30;16.10;;;10.30;;
23418;SDS011;11882;42.522;27.458;2022-12-18T01:08:57;14.57;;;10.47;;
23418;SDS011;11882;42.522;27.458;2022-12-18T01:11:24;14.13;;;10.60;;
23418;SDS011;11882;42.522;27.458;2022-12-18T01:13:52;14.60;;;9.70;;
23418;SDS011;11882;42.522;27.458;2022-12-18T01:16:20;14.30;;;9.17;;
23418;SDS011;11882;42.522;27.458;2022-12-18T01:18:50;12.97;;;9.80;;
23418;SDS011;11882;42.522;27.458;2022-12-18T01:21:20;15.50;;;9.63;;
23418;SDS011;11882;42.522;27.458;2022-12-18T01:23:50;13.80;;;8.73;;
23418;SDS011;11882;42.522;27.458;2022-12-18T01:26:18;9.53;;;5.97;;
23418;SDS011;11882;42.522;27.458;2022-12-18T01:28:46;11.33;;;8.27;;
23418;SDS011;11882;42.522;27.458;2022-12-18T01:31:14;6.53;;;4.37;;
23418;SDS011;11882;42.522;27.458;2022-12-18T01:33:43;4.23;;;2.77;;
23418;SDS011;11882;42.522;27.458;2022-12-18T01:36:17;4.53;;;2.60;;
23418;SDS011;11882;42.522;27.458;2022-12-18T01:38:47;4.47;;;2.50;;
23418;SDS011;11882;42.522;27.458;2022-12-18T01:41:16;3.50;;;2.47;;
23418;SDS011;11882;42.522;27.458;2022-12-18T01:43:46;6.87;;;2.50;;
23418;SDS011;11882;42.522;27.458;2022-12-18T01:46:15;3.47;;;2.30;;
23418;SDS011;11882;42.522;27.458;2022-12-18T01:48:44;2.70;;;1.70;;
23418;SDS011;11882;42.522;27.458;2022-12-18T01:51:13;2.73;;;1.97;;
23418;SDS011;11882;42.522;27.458;2022-12-18T01:53:41;2.33;;;1.93;;
23418;SDS011;11882;42.522;27.458;2022-12-18T01:56:13;3.73;;;1.90;;
23418;SDS011;11882;42.522;27.458;2022-12-18T01:58:46;3.27;;;2.10;;
23418;SDS011;11882;42.522;27.458;2022-12-18T02:01:20;3.13;;;2.17;;
23418;SDS011;11882;42.522;27.458;2022-12-18T02:03:48;2.67;;;1.70;;
23418;SDS011;11882;42.522;27.458;2022-12-18T02:06:17;2.10;;;1.70;;
23418;SDS011;11882;42.522;27.458;2022-12-18T02:08:51;2.27;;;1.60;;
23418;SDS011;11882;42.522;27.458;2022-12-18T02:11:32;4.70;;;1.90;;
23418;SDS011;11882;42.522;27.458;2022-12-18T02:14:12;3.07;;;1.80;;
23418;SDS011;11882;42.522;27.458;2022-12-18T02:16:46;2.73;;;2.10;;
23418;SDS011;11882;42.522;27.458;2022-12-18T02:22:20;3.00;;;1.93;;
23418;SDS011;11882;42.522;27.458;2022-12-18T02:24:58;2.13;;;1.50;;
23418;SDS011;11882;42.522;27.458;2022-12-18T02:27:33;3.27;;;1.77;;
23418;SDS011;11882;42.522;27.458;2022-12-18T02:30:04;2.03;;;1.50;;
23418;SDS011;11882;42.522;27.458;2022-12-18T02:32:35;2.83;;;1.93;;
23418;SDS011;11882;42.522;27.458;2022-12-18T02:35:07;2.73;;;1.80;;
23418;SDS011;11882;42.522;27.458;2022-12-18T02:37:39;3.03;;;1.80;;
23418;SDS011;11882;42.522;27.458;2022-12-18T02:40:09;4.40;;;1.90;;
23418;SDS011;11882;42.522;27.458;2022-12-18T02:42:41;3.53;;;1.83;;
23418;SDS011;11882;42.522;27.458;2022-12-18T02:45:08;4.20;;;2.00;;
23418;SDS011;11882;42.522;27.458;2022-12-18T02:47:36;2.67;;;1.90;;
23418;SDS011;11882;42.522;27.458;2022-12-18T02:50:07;2.50;;;1.80;;
23418;SDS011;11882;42.522;27.458;2022-12-18T02:52:41;2.87;;;2.27;;
23418;SDS011;11882;42.522;27.458;2022-12-18T02:55:19;3.53;;;2.00;;
23418;SDS011;11882;42.522;27.458;2022-12-18T02:58:00;2.70;;;1.80;;
23418;SDS011;11882;42.522;27.458;2022-12-18T03:00:33;3.30;;;1.90;;
23418;SDS011;11882;42.522;27.458;2022-12-18T03:03:06;3.23;;;2.10;;
23418;SDS011;11882;42.522;27.458;2022-12-18T03:05:41;3.00;;;2.00;;
23418;SDS011;11882;42.522;27.458;2022-12-18T03:08:13;3.87;;;2.10;;
23418;SDS011;11882;42.522;27.458;2022-12-18T03:10:45;4.53;;;1.97;;
23418;SDS011;11882;42.522;27.458;2022-12-18T03:13:20;2.80;;;1.80;;
23418;SDS011;11882;42.522;27.458;2022-12-18T03:15:55;3.27;;;2.23;;
23418;SDS011;11882;42.522;27.458;2022-12-18T03:18:25;2.97;;;2.10;;
23418;SDS011;11882;42.522;27.458;2022-12-18T03:20:58;2.50;;;1.90;;
23418;SDS011;11882;42.522;27.458;2022-12-18T03:23:29;2.83;;;2.10;;
23418;SDS011;11882;42.522;27.458;2022-12-18T03:26:04;3.73;;;2.10;;
23418;SDS011;11882;42.522;27.458;2022-12-18T03:28:38;2.50;;;1.93;;
23418;SDS011;11882;42.522;27.458;2022-12-18T03:31:09;3.07;;;2.00;;
23418;SDS011;11882;42.522;27.458;2022-12-18T03:33:38;3.07;;;2.17;;
23418;SDS011;11882;42.522;27.458;2022-12-18T03:36:10;3.20;;;2.30;;
23418;SDS011;11882;42.522;27.458;2022-12-18T03:38:38;2.50;;;2.07;;
23418;SDS011;11882;42.522;27.458;2022-12-18T03:41:06;3.07;;;2.20;;
23418;SDS011;11882;42.522;27.458;2022-12-18T03:43:45;2.57;;;1.97;;
23418;SDS011;11882;42.522;27.458;2022-12-18T03:46:20;3.50;;;2.20;;
23418;SDS011;11882;42.522;27.458;2022-12-18T03:48:56;3.37;;;2.07;;
23418;SDS011;11882;42.522;27.458;2022-12-18T03:51:28;5.17;;;2.20;;
23418;SDS011;11882;42.522;27.458;2022-12-18T03:54:04;3.37;;;2.30;;
23418;SDS011;11882;42.522;27.458;2022-12-18T03:56:34;5.13;;;2.30;;
23418;SDS011;11882;42.522;27.458;2022-12-18T03:59:06;3.13;;;2.20;;
23418;SDS011;11882;42.522;27.458;2022-12-18T04:01:37;2.87;;;2.13;;
23418;SDS011;11882;42.522;27.458;2022-12-18T04:04:07;3.80;;;2.50;;
23418;SDS011;11882;42.522;27.458;2022-12-18T04:06:37;4.33;;;2.40;;
23418;SDS011;11882;42.522;27.458;2022-12-18T04:09:06;5.23;;;2.80;;
23418;SDS011;11882;42.522;27.458;2022-12-18T04:11:34;3.90;;;2.87;;
23418;SDS011;11882;42.522;27.458;2022-12-18T04:14:01;4.77;;;3.13;;
23418;SDS011;11882;42.522;27.458;2022-12-18T04:16:30;5.77;;;3.07;;
23418;SDS011;11882;42.522;27.458;2022-12-18T04:18:57;8.23;;;3.30;;
23418;SDS011;11882;42.522;27.458;2022-12-18T04:21:24;5.60;;;2.70;;
23418;SDS011;11882;42.522;27.458;2022-12-18T04:23:51;5.07;;;3.20;;
23418;SDS011;11882;42.522;27.458;2022-12-18T04:26:18;3.73;;;2.77;;
23418;SDS011;11882;42.522;27.458;2022-12-18T04:28:46;5.27;;;2.90;;
23418;SDS011;11882;42.522;27.458;2022-12-18T04:31:13;4.33;;;3.00;;
23418;SDS011;11882;42.522;27.458;2022-12-18T04:33:41;5.60;;;3.10;;
23418;SDS011;11882;42.522;27.458;2022-12-18T04:36:09;5.50;;;2.90;;
23418;SDS011;11882;42.522;27.458;2022-12-18T04:38:37;4.47;;;2.90;;
23418;SDS011;11882;42.522;27.458;2022-12-18T04:41:04;6.23;;;3.33;;
23418;SDS011;11882;42.522;27.458;2022-12-18T04:43:31;3.53;;;2.77;;
23418;SDS011;11882;42.522;27.458;2022-12-18T04:46:02;4.67;;;3.30;;
23418;SDS011;11882;42.522;27.458;2022-12-18T04:48:30;5.67;;;3.50;;
23418;SDS011;11882;42.522;27.458;2022-12-18T04:50:59;4.80;;;2.80;;
23418;SDS011;11882;42.522;27.458;2022-12-18T04:53:26;4.07;;;3.00;;
23418;SDS011;11882;42.522;27.458;2022-12-18T04:56:01;6.30;;;3.53;;
23418;SDS011;11882;42.522;27.458;2022-12-18T04:58:29;4.30;;;3.10;;
23418;SDS011;11882;42.522;27.458;2022-12-18T05:00:56;6.37;;;3.97;;
23418;SDS011;11882;42.522;27.458;2022-12-18T05:03:23;5.73;;;3.33;;
23418;SDS011;11882;42.522;27.458;2022-12-18T05:05:51;4.67;;;3.40;;
23418;SDS011;11882;42.522;27.458;2022-12-18T05:08:19;6.43;;;3.53;;
23418;SDS011;11882;42.522;27.458;2022-12-18T05:10:46;4.03;;;3.20;;
23418;SDS011;11882;42.522;27.458;2022-12-18T05:13:13;7.10;;;3.57;;
23418;SDS011;11882;42.522;27.458;2022-12-18T05:15:40;4.30;;;2.80;;
23418;SDS011;11882;42.522;27.458;2022-12-18T05:18:08;3.87;;;2.60;;
23418;SDS011;11882;42.522;27.458;2022-12-18T05:20:35;5.13;;;2.63;;
23418;SDS011;11882;42.522;27.458;2022-12-18T05:23:02;3.50;;;2.47;;
23418;SDS011;11882;42.522;27.458;2022-12-18T05:25:31;3.83;;;2.53;;
23418;SDS011;11882;42.522;27.458;2022-12-18T05:27:58;3.87;;;2.40;;
23418;SDS011;11882;42.522;27.458;2022-12-18T05:30:25;4.23;;;2.50;;
23418;SDS011;11882;42.522;27.458;2022-12-18T05:32:52;4.33;;;2.87;;
23418;SDS011;11882;42.522;27.458;2022-12-18T05:35:19;4.53;;;2.70;;
23418;SDS011;11882;42.522;27.458;2022-12-18T05:37:46;5.53;;;3.57;;
23418;SDS011;11882;42.522;27.458;2022-12-18T05:40:13;4.03;;;2.50;;
23418;SDS011;11882;42.522;27.458;2022-12-18T05:42:42;3.57;;;2.60;;
23418;SDS011;11882;42.522;27.458;2022-12-18T05:45:09;2.60;;;2.20;;
23418;SDS011;11882;42.522;27.458;2022-12-18T05:47:36;4.20;;;2.30;;
23418;SDS011;11882;42.522;27.458;2022-12-18T05:50:05;5.20;;;2.80;;
23418;SDS011;11882;42.522;27.458;2022-12-18T05:52:33;7.90;;;2.73;;
23418;SDS011;11882;42.522;27.458;2022-12-18T05:55:00;4.00;;;2.57;;
23418;SDS011;11882;42.522;27.458;2022-12-18T05:57:27;4.50;;;2.93;;
23418;SDS011;11882;42.522;27.458;2022-12-18T05:59:56;4.23;;;2.53;;
23418;SDS011;11882;42.522;27.458;2022-12-18T06:02:23;4.10;;;2.80;;
23418;SDS011;11882;42.522;27.458;2022-12-18T06:04:50;5.77;;;2.20;;
23418;SDS011;11882;42.522;27.458;2022-12-18T06:07:17;4.40;;;2.60;;
23418;SDS011;11882;42.522;27.458;2022-12-18T06:09:44;2.97;;;2.20;;
23418;SDS011;11882;42.522;27.458;2022-12-18T06:12:11;3.50;;;2.40;;
23418;SDS011;11882;42.522;27.458;2022-12-18T06:14:38;3.80;;;2.70;;
23418;SDS011;11882;42.522;27.458;2022-12-18T06:17:07;6.47;;;3.70;;
23418;SDS011;11882;42.522;27.458;2022-12-18T06:19:34;3.70;;;2.63;;
23418;SDS011;11882;42.522;27.458;2022-12-18T06:22:01;3.97;;;2.40;;
23418;SDS011;11882;42.522;27.458;2022-12-18T06:24:28;4.23;;;3.17;;
23418;SDS011;11882;42.522;27.458;2022-12-18T06:26:56;3.87;;;2.70;;
23418;SDS011;11882;42.522;27.458;2022-12-18T06:29:23;4.00;;;2.67;;
23418;SDS011;11882;42.522;27.458;2022-12-18T06:31:50;5.00;;;3.10;;
23418;SDS011;11882;42.522;27.458;2022-12-18T06:34:18;4.50;;;2.00;;
23418;SDS011;11882;42.522;27.458;2022-12-18T06:36:45;5.70;;;3.60;;
23418;SDS011;11882;42.522;27.458;2022-12-18T06:39:12;4.20;;;3.03;;
23418;SDS011;11882;42.522;27.458;2022-12-18T06:41:39;5.93;;;3.50;;
23418;SDS011;11882;42.522;27.458;2022-12-18T06:44:06;5.40;;;3.33;;
23418;SDS011;11882;42.522;27.458;2022-12-18T06:46:33;5.57;;;3.83;;
23418;SDS011;11882;42.522;27.458;2022-12-18T06:49:00;6.43;;;4.23;;
23418;SDS011;11882;42.522;27.458;2022-12-18T06:51:29;6.40;;;4.03;;
23418;SDS011;11882;42.522;27.458;2022-12-18T06:53:56;6.87;;;4.10;;
23418;SDS011;11882;42.522;27.458;2022-12-18T06:56:23;6.33;;;4.17;;
23418;SDS011;11882;42.522;27.458;2022-12-18T06:58:50;7.10;;;4.13;;
23418;SDS011;11882;42.522;27.458;2022-12-18T07:01:17;5.70;;;3.87;;
23418;SDS011;11882;42.522;27.458;2022-12-18T07:03:44;5.80;;;3.87;;
23418;SDS011;11882;42.522;27.458;2022-12-18T07:06:13;7.87;;;4.37;;
23418;SDS011;11882;42.522;27.458;2022-12-18T07:08:42;7.73;;;4.60;;
23418;SDS011;11882;42.522;27.458;2022-12-18T07:11:09;7.77;;;4.73;;
23418;SDS011;11882;42.522;27.458;2022-12-18T07:13:37;10.57;;;4.90;;
23418;SDS011;11882;42.522;27.458;2022-12-18T07:16:05;9.80;;;6.50;;
23418;SDS011;11882;42.522;27.458;2022-12-18T07:18:33;10.00;;;5.60;;
23418;SDS011;11882;42.522;27.458;2022-12-18T07:21:02;7.97;;;4.90;;
23418;SDS011;11882;42.522;27.458;2022-12-18T07:23:31;8.20;;;5.67;;
23418;SDS011;11882;42.522;27.458;2022-12-18T07:26:01;7.70;;;5.50;;
23418;SDS011;11882;42.522;27.458;2022-12-18T07:28:30;8.73;;;5.80;;
23418;SDS011;11882;42.522;27.458;2022-12-18T07:30:57;10.37;;;5.40;;
23418;SDS011;11882;42.522;27.458;2022-12-18T07:33:25;12.77;;;7.20;;
23418;SDS011;11882;42.522;27.458;2022-12-18T07:35:52;8.87;;;5.80;;
23418;SDS011;11882;42.522;27.458;2022-12-18T07:38:19;8.57;;;5.13;;
23418;SDS011;11882;42.522;27.458;2022-12-18T07:40:46;7.30;;;5.03;;
23418;SDS011;11882;42.522;27.458;2022-12-18T07:43:14;8.67;;;5.33;;
23418;SDS011;11882;42.522;27.458;2022-12-18T07:45:41;9.37;;;5.70;;
23418;SDS011;11882;42.522;27.458;2022-12-18T07:48:09;8.17;;;5.40;;
23418;SDS011;11882;42.522;27.458;2022-12-18T07:50:36;8.43;;;5.50;;
23418;SDS011;11882;42.522;27.458;2022-12-18T07:53:03;8.57;;;5.53;;
23418;SDS011;11882;42.522;27.458;2022-12-18T07:55:31;8.93;;;5.87;;
23418;SDS011;11882;42.522;27.458;2022-12-18T07:58:00;10.13;;;5.90;;
23418;SDS011;11882;42.522;27.458;2022-12-18T08:00:30;9.73;;;6.37;;
23418;SDS011;11882;42.522;27.458;2022-12-18T08:02:57;11.30;;;6.00;;
23418;SDS011;11882;42.522;27.458;2022-12-18T08:05:24;11.23;;;6.47;;
23418;SDS011;11882;42.522;27.458;2022-12-18T08:07:51;8.70;;;5.60;;
23418;SDS011;11882;42.522;27.458;2022-12-18T08:10:19;12.10;;;5.73;;
23418;SDS011;11882;42.522;27.458;2022-12-18T08:12:48;10.53;;;6.20;;
23418;SDS011;11882;42.522;27.458;2022-12-18T08:15:16;12.60;;;5.80;;
23418;SDS011;11882;42.522;27.458;2022-12-18T08:17:44;11.40;;;7.30;;
23418;SDS011;11882;42.522;27.458;2022-12-18T08:20:11;9.57;;;6.10;;
23418;SDS011;11882;42.522;27.458;2022-12-18T08:22:40;10.15;;;6.90;;
23418;SDS011;11882;42.522;27.458;2022-12-18T08:25:07;11.93;;;6.97;;
23418;SDS011;11882;42.522;27.458;2022-12-18T08:27:35;9.10;;;6.47;;
23418;SDS011;11882;42.522;27.458;2022-12-18T08:30:02;10.30;;;6.63;;
23418;SDS011;11882;42.522;27.458;2022-12-18T08:32:29;9.87;;;6.83;;
23418;SDS011;11882;42.522;27.458;2022-12-18T08:34:59;11.93;;;7.43;;
23418;SDS011;11882;42.522;27.458;2022-12-18T08:37:26;10.67;;;6.97;;
23418;SDS011;11882;42.522;27.458;2022-12-18T08:39:53;9.67;;;6.27;;
23418;SDS011;11882;42.522;27.458;2022-12-18T08:42:20;11.07;;;6.60;;
23418;SDS011;11882;42.522;27.458;2022-12-18T08:45:05;13.37;;;8.47;;
23418;SDS011;11882;42.522;27.458;2022-12-18T08:47:32;13.20;;;7.57;;
23418;SDS011;11882;42.522;27.458;2022-12-18T08:50:01;12.43;;;7.30;;
23418;SDS011;11882;42.522;27.458;2022-12-18T08:52:28;11.43;;;7.50;;
23418;SDS011;11882;42.522;27.458;2022-12-18T08:54:57;11.83;;;7.57;;
23418;SDS011;11882;42.522;27.458;2022-12-18T08:57:24;11.20;;;7.43;;
23418;SDS011;11882;42.522;27.458;2022-12-18T09:02:18;11.85;;;7.60;;
23418;SDS011;11882;42.522;27.458;2022-12-18T09:04:46;32.00;;;28.03;;
23418;SDS011;11882;42.522;27.458;2022-12-18T09:07:15;11.68;;;7.63;;
23418;SDS011;11882;42.522;27.458;2022-12-18T09:09:42;10.83;;;7.30;;
23418;SDS011;11882;42.522;27.458;2022-12-18T09:12:09;12.33;;;6.97;;
23418;SDS011;11882;42.522;27.458;2022-12-18T09:14:36;53.28;;;47.38;;
23418;SDS011;11882;42.522;27.458;2022-12-18T09:17:03;11.53;;;7.60;;
23418;SDS011;11882;42.522;27.458;2022-12-18T11:07:19;15.70;;;10.80;;
23418;SDS011;11882;42.522;27.458;2022-12-18T11:09:46;16.40;;;10.03;;
23418;SDS011;11882;42.522;27.458;2022-12-18T11:12:26;16.27;;;10.20;;
23418;SDS011;11882;42.522;27.458;2022-12-18T11:14:55;13.65;;;7.25;;
23418;SDS011;11882;42.522;27.458;2022-12-18T11:17:27;15.57;;;9.57;;
23418;SDS011;11882;42.522;27.458;2022-12-18T11:19:57;11.80;;;6.10;;
23418;SDS011;11882;42.522;27.458;2022-12-18T11:22:26;14.90;;;8.00;;
23418;SDS011;11882;42.522;27.458;2022-12-18T11:24:55;16.97;;;9.83;;
23418;SDS011;11882;42.522;27.458;2022-12-18T11:27:25;15.50;;;9.60;;
23418;SDS011;11882;42.522;27.458;2022-12-18T11:32:35;16.38;;;10.82;;
23418;SDS011;11882;42.522;27.458;2022-12-18T11:35:10;16.30;;;10.73;;
23418;SDS011;11882;42.522;27.458;2022-12-18T11:37:45;16.98;;;11.82;;
23418;SDS011;11882;42.522;27.458;2022-12-18T11:40:17;20.60;;;12.87;;
23418;SDS011;11882;42.522;27.458;2022-12-18T11:42:48;18.13;;;10.20;;
23418;SDS011;11882;42.522;27.458;2022-12-18T11:45:28;26.40;;;20.55;;
23418;SDS011;11882;42.522;27.458;2022-12-18T11:50:31;18.02;;;12.45;;
23418;SDS011;11882;42.522;27.458;2022-12-18T11:53:09;17.53;;;9.67;;
23418;SDS011;11882;42.522;27.458;2022-12-18T11:55:40;11.90;;;6.00;;
23418;SDS011;11882;42.522;27.458;2022-12-18T11:58:12;17.63;;;10.90;;
23418;SDS011;11882;42.522;27.458;2022-12-18T12:00:52;16.47;;;9.53;;
23418;SDS011;11882;42.522;27.458;2022-12-18T12:03:43;20.17;;;10.23;;
23418;SDS011;11882;42.522;27.458;2022-12-18T12:06:22;15.25;;;9.20;;
23418;SDS011;11882;42.522;27.458;2022-12-18T12:08:59;15.70;;;9.57;;
23418;SDS011;11882;42.522;27.458;2022-12-18T12:11:39;17.23;;;9.73;;
23418;SDS011;11882;42.522;27.458;2022-12-18T12:14:23;13.97;;;9.20;;
23418;SDS011;11882;42.522;27.458;2022-12-18T12:17:03;14.67;;;9.33;;
23418;SDS011;11882;42.522;27.458;2022-12-18T12:19:40;16.57;;;10.10;;
23418;SDS011;11882;42.522;27.458;2022-12-18T12:22:18;18.13;;;11.00;;
23418;SDS011;11882;42.522;27.458;2022-12-18T12:24:59;16.50;;;10.33;;
23418;SDS011;11882;42.522;27.458;2022-12-18T12:27:41;15.67;;;10.00;;
23418;SDS011;11882;42.522;27.458;2022-12-18T12:30:16;17.57;;;10.07;;
23418;SDS011;11882;42.522;27.458;2022-12-18T12:32:58;17.17;;;10.90;;
23418;SDS011;11882;42.522;27.458;2022-12-18T12:35:40;18.60;;;11.17;;
23418;SDS011;11882;42.522;27.458;2022-12-18T12:38:15;16.70;;;10.23;;
23418;SDS011;11882;42.522;27.458;2022-12-18T12:40:47;18.73;;;11.47;;
23418;SDS011;11882;42.522;27.458;2022-12-18T12:43:24;19.93;;;11.37;;
23418;SDS011;11882;42.522;27.458;2022-12-18T12:45:57;21.20;;;11.93;;
23418;SDS011;11882;42.522;27.458;2022-12-18T12:48:37;18.47;;;11.40;;
23418;SDS011;11882;42.522;27.458;2022-12-18T12:51:15;19.00;;;11.13;;
23418;SDS011;11882;42.522;27.458;2022-12-18T12:53:44;20.20;;;11.90;;
23418;SDS011;11882;42.522;27.458;2022-12-18T12:56:13;19.27;;;12.03;;
23418;SDS011;11882;42.522;27.458;2022-12-18T12:58:45;19.70;;;11.67;;
23418;SDS011;11882;42.522;27.458;2022-12-18T13:01:25;19.17;;;12.13;;
23418;SDS011;11882;42.522;27.458;2022-12-18T13:04:02;18.60;;;11.63;;
23418;SDS011;11882;42.522;27.458;2022-12-18T13:06:39;19.47;;;12.13;;
23418;SDS011;11882;42.522;27.458;2022-12-18T13:09:13;19.63;;;12.10;;
23418;SDS011;11882;42.522;27.458;2022-12-18T13:11:41;18.93;;;11.67;;
23418;SDS011;11882;42.522;27.458;2022-12-18T13:14:28;21.80;;;12.83;;
23418;SDS011;11882;42.522;27.458;2022-12-18T13:19:43;19.17;;;11.80;;
23418;SDS011;11882;42.522;27.458;2022-12-18T13:22:21;21.00;;;12.97;;
23418;SDS011;11882;42.522;27.458;2022-12-18T13:24:50;21.50;;;13.33;;
23418;SDS011;11882;42.522;27.458;2022-12-18T13:33:37;20.40;;;12.27;;
23418;SDS011;11882;42.522;27.458;2022-12-18T13:36:12;18.27;;;11.20;;
23418;SDS011;11882;42.522;27.458;2022-12-18T13:38:43;20.53;;;12.40;;
23418;SDS011;11882;42.522;27.458;2022-12-18T13:41:24;23.87;;;12.20;;
23418;SDS011;11882;42.522;27.458;2022-12-18T13:43:54;22.03;;;11.90;;
23418;SDS011;11882;42.522;27.458;2022-12-18T13:46:24;20.07;;;12.93;;
23418;SDS011;11882;42.522;27.458;2022-12-18T13:48:55;21.23;;;12.43;;
23418;SDS011;11882;42.522;27.458;2022-12-18T13:51:26;24.10;;;13.20;;
23418;SDS011;11882;42.522;27.458;2022-12-18T13:53:56;18.17;;;12.03;;
23418;SDS011;11882;42.522;27.458;2022-12-18T13:56:26;21.10;;;12.30;;
23418;SDS011;11882;42.522;27.458;2022-12-18T13:59:10;28.93;;;17.50;;
23418;SDS011;11882;42.522;27.458;2022-12-18T14:01:44;24.10;;;15.60;;
23418;SDS011;11882;42.522;27.458;2022-12-18T14:04:17;20.83;;;12.37;;
23418;SDS011;11882;42.522;27.458;2022-12-18T14:06:51;18.70;;;11.97;;
23418;SDS011;11882;42.522;27.458;2022-12-18T14:09:23;19.53;;;12.37;;
23418;SDS011;11882;42.522;27.458;2022-12-18T14:11:52;20.93;;;13.20;;
23418;SDS011;11882;42.522;27.458;2022-12-18T14:14:43;20.83;;;14.00;;
23418;SDS011;11882;42.522;27.458;2022-12-18T14:17:12;20.33;;;12.50;;
23418;SDS011;11882;42.522;27.458;2022-12-18T14:19:41;18.60;;;11.47;;
23418;SDS011;11882;42.522;27.458;2022-12-18T14:22:14;19.63;;;12.53;;
23418;SDS011;11882;42.522;27.458;2022-12-18T14:24:44;21.03;;;11.73;;
23418;SDS011;11882;42.522;27.458;2022-12-18T14:27:12;23.90;;;12.67;;
23418;SDS011;11882;42.522;27.458;2022-12-18T14:29:46;21.90;;;14.33;;
23418;SDS011;11882;42.522;27.458;2022-12-18T14:32:14;20.77;;;11.60;;
23418;SDS011;11882;42.522;27.458;2022-12-18T14:34:43;19.13;;;11.97;;
23418;SDS011;11882;42.522;27.458;2022-12-18T14:37:10;23.00;;;12.97;;
23418;SDS011;11882;42.522;27.458;2022-12-18T14:39:39;19.10;;;12.50;;
23418;SDS011;11882;42.522;27.458;2022-12-18T14:42:11;21.00;;;13.83;;
23418;SDS011;11882;42.522;27.458;2022-12-18T14:44:38;26.77;;;14.37;;
23418;SDS011;11882;42.522;27.458;2022-12-18T14:47:12;25.73;;;16.13;;
23418;SDS011;11882;42.522;27.458;2022-12-18T14:49:40;24.90;;;15.17;;
23418;SDS011;11882;42.522;27.458;2022-12-18T14:52:13;21.80;;;14.93;;
23418;SDS011;11882;42.522;27.458;2022-12-18T14:54:47;23.97;;;15.30;;
23418;SDS011;11882;42.522;27.458;2022-12-18T14:57:18;26.00;;;14.73;;
23418;SDS011;11882;42.522;27.458;2022-12-18T14:59:48;21.97;;;13.63;;
23418;SDS011;11882;42.522;27.458;2022-12-18T15:02:18;21.27;;;14.03;;
23418;SDS011;11882;42.522;27.458;2022-12-18T15:04:53;22.03;;;13.63;;
23418;SDS011;11882;42.522;27.458;2022-12-18T15:07:26;23.43;;;14.30;;
23418;SDS011;11882;42.522;27.458;2022-12-18T15:10:00;23.03;;;14.47;;
23418;SDS011;11882;42.522;27.458;2022-12-18T15:12:32;22.67;;;13.90;;
23418;SDS011;11882;42.522;27.458;2022-12-18T15:15:01;22.70;;;13.60;;
23418;SDS011;11882;42.522;27.458;2022-12-18T15:17:28;24.97;;;15.77;;
23418;SDS011;11882;42.522;27.458;2022-12-18T15:19:58;23.30;;;14.30;;
23418;SDS011;11882;42.522;27.458;2022-12-18T15:22:28;23.70;;;14.03;;
23418;SDS011;11882;42.522;27.458;2022-12-18T15:24:57;23.07;;;13.87;;
23418;SDS011;11882;42.522;27.458;2022-12-18T15:27:26;23.33;;;14.80;;
23418;SDS011;11882;42.522;27.458;2022-12-18T15:35:55;25.30;;;14.30;;
23418;SDS011;11882;42.522;27.458;2022-12-18T15:38:23;24.80;;;15.17;;
23418;SDS011;11882;42.522;27.458;2022-12-18T15:40:50;23.17;;;14.47;;
23418;SDS011;11882;42.522;27.458;2022-12-18T15:43:18;28.73;;;17.73;;
23418;SDS011;11882;42.522;27.458;2022-12-18T15:46:07;26.53;;;16.57;;
23418;SDS011;11882;42.522;27.458;2022-12-18T15:48:38;24.47;;;15.27;;
23418;SDS011;11882;42.522;27.458;2022-12-18T15:51:09;23.60;;;15.87;;
23418;SDS011;11882;42.522;27.458;2022-12-18T15:53:40;24.13;;;15.00;;
23418;SDS011;11882;42.522;27.458;2022-12-18T15:56:09;28.17;;;16.10;;
23418;SDS011;11882;42.522;27.458;2022-12-18T15:58:54;26.63;;;15.63;;
23418;SDS011;11882;42.522;27.458;2022-12-18T16:01:24;27.40;;;16.80;;
23418;SDS011;11882;42.522;27.458;2022-12-18T16:03:53;27.13;;;17.50;;
23418;SDS011;11882;42.522;27.458;2022-12-18T16:06:21;28.80;;;16.73;;
23418;SDS011;11882;42.522;27.458;2022-12-18T16:08:48;30.43;;;18.03;;
23418;SDS011;11882;42.522;27.458;2022-12-18T16:11:19;31.00;;;19.30;;
23418;SDS011;11882;42.522;27.458;2022-12-18T16:14:03;27.73;;;18.20;;
23418;SDS011;11882;42.522;27.458;2022-12-18T16:16:32;31.93;;;18.93;;
23418;SDS011;11882;42.522;27.458;2022-12-18T16:18:59;35.93;;;21.33;;
23418;SDS011;11882;42.522;27.458;2022-12-18T16:21:26;34.87;;;20.27;;
23418;SDS011;11882;42.522;27.458;2022-12-18T16:23:53;34.73;;;19.60;;
23418;SDS011;11882;42.522;27.458;2022-12-18T16:26:20;32.23;;;18.93;;
23418;SDS011;11882;42.522;27.458;2022-12-18T16:28:47;31.53;;;19.33;;
23418;SDS011;11882;42.522;27.458;2022-12-18T16:31:14;31.97;;;18.53;;
23418;SDS011;11882;42.522;27.458;2022-12-18T16:33:43;31.17;;;18.67;;
23418;SDS011;11882;42.522;27.458;2022-12-18T16:36:10;31.07;;;18.73;;
23418;SDS011;11882;42.522;27.458;2022-12-18T16:38:37;32.10;;;18.57;;
23418;SDS011;11882;42.522;27.458;2022-12-18T16:41:06;35.83;;;20.57;;
23418;SDS011;11882;42.522;27.458;2022-12-18T16:44:00;32.80;;;18.77;;
23418;SDS011;11882;42.522;27.458;2022-12-18T16:46:27;31.37;;;19.30;;
23418;SDS011;11882;42.522;27.458;2022-12-18T16:48:57;33.00;;;19.03;;
23418;SDS011;11882;42.522;27.458;2022-12-18T16:51:26;32.00;;;18.77;;
23418;SDS011;11882;42.522;27.458;2022-12-18T16:53:53;30.40;;;18.00;;
23418;SDS011;11882;42.522;27.458;2022-12-18T16:56:21;27.80;;;17.07;;